Time;durP1;ratioP1;P1;durP2;ratioP2;P2;SDS_P1;SDS_P2;PMS_P1;PMS_P2;Temp;Humidity;BMP_temperature;BMP_pressure;BME280_temperature;BME280_humidity;BME280_pressure;Samples;Min_cycle;Max_cycle;Signal;HPM_P1;HPM_P2
2023/10/24 00:02:19;;;;;;;6.78;6.13;;;;;;;;;;5041102;28;20071;-61
2023/10/24 00:04:45;;;;;;;5.70;5.22;;;;;;;;;;5043736;28;20037;-61
2023/10/24 00:07:11;;;;;;;5.85;5.25;;;;;;;;;;5043901;28;20059;-61
2023/10/24 00:09:37;;;;;;;5.05;4.50;;;;;;;;;;5041980;28;20044;-61
2023/10/24 00:12:03;;;;;;;6.13;5.38;;;;;;;;;;5039396;28;20059;-61
2023/10/24 00:14:29;;;;;;;6.07;5.53;;;;;;;;;;5041752;28;20675;-61
2023/10/24 00:16:55;;;;;;;10.90;5.28;;;;;;;;;;5042727;28;20047;-61
2023/10/24 00:19:21;;;;;;;7.63;6.47;;;;;;;;;;5039400;28;20045;-61
2023/10/24 00:21:47;;;;;;;9.02;7.38;;;;;;;;;;5043615;28;20140;-61
2023/10/24 00:24:14;;;;;;;8.00;6.80;;;;;;;;;;5043679;28;20132;-61
2023/10/24 00:26:40;;;;;;;6.72;6.13;;;;;;;;;;5040776;28;20075;-61
2023/10/24 00:29:06;;;;;;;7.53;6.70;;;;;;;;;;5042033;28;20111;-61
2023/10/24 00:31:32;;;;;;;6.38;5.78;;;;;;;;;;5041642;28;20045;-61
2023/10/24 00:33:58;;;;;;;7.28;6.50;;;;;;;;;;5043055;28;20474;-61
2023/10/24 00:36:24;;;;;;;7.20;6.28;;;;;;;;;;5040470;28;20053;-61
2023/10/24 00:38:50;;;;;;;5.40;4.97;;;;;;;;;;5041149;28;20072;-61
2023/10/24 00:41:16;;;;;;;6.07;5.47;;;;;;;;;;5041394;28;20538;-61
2023/10/24 00:43:42;;;;;;;6.15;5.57;;;;;;;;;;5041632;28;20048;-61
2023/10/24 00:46:08;;;;;;;7.43;5.85;;;;;;;;;;5041845;28;20045;-61
2023/10/24 00:48:34;;;;;;;7.78;6.28;;;;;;;;;;5042526;28;20511;-61
2023/10/24 00:51:01;;;;;;;6.72;6.03;;;;;;;;;;5042019;28;20107;-61
2023/10/24 00:53:27;;;;;;;6.32;5.72;;;;;;;;;;5041090;28;20136;-61
2023/10/24 00:55:53;;;;;;;5.90;5.30;;;;;;;;;;5043215;28;20183;-61
2023/10/24 00:58:19;;;;;;;6.18;5.57;;;;;;;;;;5040315;28;20049;-61
2023/10/24 01:00:46;;;;;;;6.78;5.93;;;;;;;;;;5042278;28;20037;-61
2023/10/24 01:03:12;;;;;;;5.35;4.85;;;;;;;;;;5041882;28;20488;-61
2023/10/24 01:05:38;;;;;;;6.70;5.45;;;;;;;;;;5042454;28;20057;-61
2023/10/24 01:08:04;;;;;;;5.47;4.97;;;;;;;;;;5040187;28;20055;-61
2023/10/24 01:10:30;;;;;;;5.40;4.90;;;;;;;;;;5041269;28;20446;-61
2023/10/24 01:12:56;;;;;;;4.57;4.18;;;;;;;;;;5042227;28;20041;-61
2023/10/24 01:15:22;;;;;;;4.78;4.28;;;;;;;;;;5040571;28;20072;-61
2023/10/24 01:17:49;;;;;;;4.38;3.97;;;;;;;;;;5042929;28;20051;-60
2023/10/24 01:20:15;;;;;;;4.15;3.75;;;;;;;;;;5041332;28;20054;-61
2023/10/24 01:22:41;;;;;;;3.90;3.60;;;;;;;;;;5039533;28;20574;-61
2023/10/24 01:25:11;;;;;;;4.32;3.92;;;;;;;;;;5042929;28;20048;-61
2023/10/24 01:27:39;;;;;;;5.18;4.70;;;;;;;;;;5040910;28;20037;-61
2023/10/24 01:30:05;;;;;;;5.38;4.88;;;;;;;;;;5040139;28;20057;-61
2023/10/24 01:32:31;;;;;;;6.30;5.45;;;;;;;;;;5040912;28;20052;-61
2023/10/24 01:34:57;;;;;;;5.57;4.72;;;;;;;;;;5042323;28;20033;-61
2023/10/24 01:37:23;;;;;;;5.53;5.03;;;;;;;;;;5041982;28;20132;-61
2023/10/24 01:39:49;;;;;;;5.13;4.72;;;;;;;;;;5042866;28;20114;-61
2023/10/24 01:42:15;;;;;;;6.13;5.63;;;;;;;;;;5040622;28;20480;-61
2023/10/24 01:44:41;;;;;;;5.43;4.93;;;;;;;;;;5038185;28;20061;-61
2023/10/24 01:47:07;;;;;;;6.65;5.57;;;;;;;;;;5042600;28;20045;-61
2023/10/24 01:49:33;;;;;;;5.90;4.75;;;;;;;;;;5039746;28;20067;-61
2023/10/24 01:51:59;;;;;;;5.03;4.55;;;;;;;;;;5043545;28;20041;-61
2023/10/24 01:54:25;;;;;;;5.55;4.80;;;;;;;;;;5041862;28;20049;-61
2023/10/24 01:56:51;;;;;;;5.40;4.90;;;;;;;;;;5040275;28;20037;-61
2023/10/24 01:59:17;;;;;;;4.40;4.00;;;;;;;;;;5041186;28;20044;-61
2023/10/24 02:01:43;;;;;;;5.25;4.70;;;;;;;;;;5041772;28;20381;-61
2023/10/24 02:04:09;;;;;;;5.80;5.25;;;;;;;;;;5041991;28;20159;-61
2023/10/24 02:06:35;;;;;;;7.10;5.72;;;;;;;;;;5040580;28;20115;-62
2023/10/24 02:09:02;;;;;;;4.85;4.45;;;;;;;;;;5040686;28;20053;-61
2023/10/24 02:11:28;;;;;;;6.15;4.47;;;;;;;;;;5040281;28;20139;-61
2023/10/24 02:13:54;;;;;;;4.53;4.07;;;;;;;;;;5040051;28;20052;-61
2023/10/24 02:16:20;;;;;;;4.70;4.30;;;;;;;;;;5042574;28;20041;-61
2023/10/24 02:18:46;;;;;;;4.10;3.80;;;;;;;;;;5040544;28;20500;-61
2023/10/24 02:21:12;;;;;;;4.35;3.95;;;;;;;;;;5041433;28;20060;-61
2023/10/24 02:23:38;;;;;;;5.35;4.78;;;;;;;;;;5040398;28;20501;-61
2023/10/24 02:26:04;;;;;;;4.80;4.30;;;;;;;;;;5041279;28;20132;-61
2023/10/24 02:28:30;;;;;;;4.82;4.38;;;;;;;;;;5039352;28;20056;-61
2023/10/24 02:30:57;;;;;;;4.88;4.47;;;;;;;;;;5039863;28;20060;-61
2023/10/24 02:33:23;;;;;;;5.32;4.82;;;;;;;;;;5039067;28;20040;-61
2023/10/24 02:35:49;;;;;;;4.53;4.13;;;;;;;;;;5041791;28;20045;-61
2023/10/24 02:38:16;;;;;;;4.88;4.43;;;;;;;;;;5043608;28;20044;-61
2023/10/24 02:40:51;;;;;;;4.50;4.10;;;;;;;;;;5043151;28;20065;-61
2023/10/24 02:43:17;;;;;;;3.75;3.45;;;;;;;;;;5044885;28;20041;-61
2023/10/24 02:45:43;;;;;;;4.00;3.60;;;;;;;;;;5043684;28;20101;-61
2023/10/24 02:48:09;;;;;;;3.70;3.40;;;;;;;;;;5044681;28;20055;-61
2023/10/24 02:50:35;;;;;;;3.65;3.35;;;;;;;;;;5043000;28;20603;-61
2023/10/24 02:53:06;;;;;;;3.63;3.33;;;;;;;;;;5042490;28;20103;-61
2023/10/24 02:55:34;;;;;;;3.80;3.50;;;;;;;;;;5044046;28;20530;-61
2023/10/24 02:58:00;;;;;;;3.95;3.65;;;;;;;;;;5043564;28;20377;-61
2023/10/24 03:00:26;;;;;;;3.83;3.45;;;;;;;;;;5041957;28;20059;-61
2023/10/24 03:02:52;;;;;;;4.00;3.58;;;;;;;;;;5043980;28;20387;-61
2023/10/24 03:05:18;;;;;;;3.53;3.25;;;;;;;;;;5041759;28;20055;-62
2023/10/24 03:07:44;;;;;;;3.15;2.95;;;;;;;;;;5042503;28;20049;-61
2023/10/24 03:10:10;;;;;;;3.47;3.17;;;;;;;;;;5043398;28;20410;-61
2023/10/24 03:12:36;;;;;;;3.55;3.25;;;;;;;;;;5042459;28;20040;-61
2023/10/24 03:15:02;;;;;;;3.58;3.25;;;;;;;;;;5042163;28;20243;-61
2023/10/24 03:17:28;;;;;;;3.28;2.97;;;;;;;;;;5043147;28;20041;-61
2023/10/24 03:19:55;;;;;;;3.90;3.53;;;;;;;;;;5042455;28;20045;-61
2023/10/24 03:22:22;;;;;;;3.58;3.28;;;;;;;;;;5040688;28;20037;-61
2023/10/24 03:24:49;;;;;;;2.50;2.30;;;;;;;;;;5044300;28;20045;-61
2023/10/24 03:27:17;;;;;;;3.67;3.38;;;;;;;;;;5042319;28;20051;-61
2023/10/24 03:29:43;;;;;;;2.90;2.63;;;;;;;;;;5041206;28;20060;-61
2023/10/24 03:32:09;;;;;;;2.78;2.58;;;;;;;;;;5041984;28;20049;-61
2023/10/24 03:34:38;;;;;;;2.90;2.70;;;;;;;;;;5040782;28;20041;-61
2023/10/24 03:37:05;;;;;;;3.63;3.33;;;;;;;;;;5042945;28;20399;-61
2023/10/24 03:39:31;;;;;;;4.00;3.70;;;;;;;;;;5042604;28;20057;-61
2023/10/24 03:41:57;;;;;;;3.30;3.00;;;;;;;;;;5043107;28;20052;-61
2023/10/24 03:44:23;;;;;;;3.97;3.60;;;;;;;;;;5042378;28;20045;-61
2023/10/24 03:46:49;;;;;;;3.50;3.20;;;;;;;;;;5042453;28;20049;-61
2023/10/24 03:49:15;;;;;;;3.95;3.65;;;;;;;;;;5042314;28;20091;-61
2023/10/24 03:51:41;;;;;;;4.80;4.32;;;;;;;;;;5043397;28;20045;-61
2023/10/24 03:54:07;;;;;;;5.35;4.85;;;;;;;;;;5042267;28;20037;-61
2023/10/24 03:56:33;;;;;;;4.35;3.95;;;;;;;;;;5040845;28;20498;-61
2023/10/24 03:58:59;;;;;;;4.72;4.32;;;;;;;;;;5043758;28;20048;-61
2023/10/24 04:01:25;;;;;;;5.15;4.65;;;;;;;;;;5041024;28;20037;-61
2023/10/24 04:03:52;;;;;;;5.65;4.82;;;;;;;;;;5042143;28;20475;-61
2023/10/24 04:06:18;;;;;;;6.07;5.53;;;;;;;;;;5042635;28;20060;-61
2023/10/24 04:08:44;;;;;;;5.60;5.07;;;;;;;;;;5041655;28;20504;-61
2023/10/24 04:11:14;;;;;;;7.80;6.82;;;;;;;;;;5041096;28;20127;-61
2023/10/24 04:13:40;;;;;;;7.43;6.72;;;;;;;;;;5041479;28;20094;-61
2023/10/24 04:16:06;;;;;;;6.20;5.60;;;;;;;;;;5042126;28;20091;-61
2023/10/24 04:18:32;;;;;;;7.10;6.43;;;;;;;;;;5041276;28;20395;-61
2023/10/24 04:20:58;;;;;;;5.10;4.70;;;;;;;;;;5042584;28;20482;-61
2023/10/24 04:23:24;;;;;;;5.60;5.10;;;;;;;;;;5041053;28;20275;-61
2023/10/24 04:25:50;;;;;;;6.50;5.68;;;;;;;;;;5040848;28;20076;-61
2023/10/24 04:28:16;;;;;;;5.82;5.18;;;;;;;;;;5041908;28;20652;-61
2023/10/24 04:30:42;;;;;;;5.60;5.10;;;;;;;;;;5041473;28;20049;-61
2023/10/24 04:33:09;;;;;;;5.43;5.03;;;;;;;;;;5041015;28;20084;-62
2023/10/24 04:35:43;;;;;;;6.18;5.68;;;;;;;;;;5041412;28;20399;-61
2023/10/24 04:38:09;;;;;;;6.15;5.55;;;;;;;;;;5040345;28;20055;-61
2023/10/24 04:40:38;;;;;;;4.95;4.45;;;;;;;;;;5040805;28;20049;-61
2023/10/24 04:43:04;;;;;;;5.30;4.80;;;;;;;;;;5041355;28;20127;-61
2023/10/24 04:45:31;;;;;;;5.65;5.15;;;;;;;;;;5042178;28;20355;-61
2023/10/24 04:47:58;;;;;;;5.35;4.95;;;;;;;;;;5041841;28;20114;-61
2023/10/24 04:50:24;;;;;;;4.32;3.92;;;;;;;;;;5040515;28;20051;-61
2023/10/24 04:52:50;;;;;;;5.75;4.35;;;;;;;;;;5041018;28;20055;-61
2023/10/24 04:55:16;;;;;;;4.88;4.35;;;;;;;;;;5042236;28;20044;-61
2023/10/24 04:57:43;;;;;;;4.75;4.35;;;;;;;;;;5041171;28;20107;-61
2023/10/24 05:00:11;;;;;;;4.93;4.50;;;;;;;;;;5041307;28;20041;-61
2023/10/24 05:02:37;;;;;;;4.10;3.80;;;;;;;;;;5039726;28;20122;-61
2023/10/24 05:05:03;;;;;;;5.25;4.85;;;;;;;;;;5041354;28;20045;-61
2023/10/24 05:07:29;;;;;;;4.80;4.40;;;;;;;;;;5041330;28;20113;-61
2023/10/24 05:09:55;;;;;;;4.28;3.90;;;;;;;;;;5041532;28;20068;-61
2023/10/24 05:12:21;;;;;;;4.97;4.57;;;;;;;;;;5057251;28;20043;-61
2023/10/24 05:14:48;;;;;;;4.78;4.32;;;;;;;;;;5040960;28;20037;-61
2023/10/24 05:17:14;;;;;;;4.20;3.80;;;;;;;;;;5042067;28;20063;-61
2023/10/24 05:19:41;;;;;;;4.45;4.15;;;;;;;;;;5040124;28;20056;-61
2023/10/24 05:22:07;;;;;;;4.32;3.88;;;;;;;;;;5038947;28;20045;-61
2023/10/24 05:24:34;;;;;;;4.43;4.03;;;;;;;;;;5040506;28;20052;-61
2023/10/24 05:27:00;;;;;;;5.57;5.07;;;;;;;;;;5041719;28;20095;-61
2023/10/24 05:29:26;;;;;;;4.72;4.32;;;;;;;;;;5040246;28;20041;-61
2023/10/24 05:31:52;;;;;;;4.50;4.10;;;;;;;;;;5040621;28;20059;-61
2023/10/24 05:34:18;;;;;;;4.32;4.03;;;;;;;;;;5039627;28;20399;-61
2023/10/24 05:36:44;;;;;;;4.32;4.03;;;;;;;;;;5040509;28;20059;-61
2023/10/24 05:39:10;;;;;;;3.80;3.50;;;;;;;;;;5039295;28;20120;-61
2023/10/24 05:41:36;;;;;;;2.90;2.70;;;;;;;;;;5039520;28;20041;-61
2023/10/24 05:44:03;;;;;;;2.95;2.75;;;;;;;;;;5038261;28;20049;-61
2023/10/24 05:46:29;;;;;;;3.22;3.00;;;;;;;;;;5040974;28;20059;-62
2023/10/24 05:48:55;;;;;;;2.83;2.63;;;;;;;;;;5039472;28;20091;-61
2023/10/24 05:51:22;;;;;;;2.90;2.60;;;;;;;;;;5039928;28;20563;-61
2023/10/24 05:53:49;;;;;;;2.05;1.95;;;;;;;;;;5041649;28;20048;-61
2023/10/24 05:56:16;;;;;;;2.58;2.38;;;;;;;;;;5039805;28;20052;-61
2023/10/24 05:58:42;;;;;;;3.33;3.10;;;;;;;;;;5041165;28;20041;-61
2023/10/24 06:01:08;;;;;;;2.85;2.65;;;;;;;;;;5040580;28;20510;-61
2023/10/24 06:03:34;;;;;;;3.15;2.95;;;;;;;;;;5039511;28;20550;-62
2023/10/24 06:06:00;;;;;;;2.83;2.63;;;;;;;;;;5042021;28;20135;-61
2023/10/24 06:08:26;;;;;;;2.42;2.22;;;;;;;;;;5039003;28;20041;-62
2023/10/24 06:10:56;;;;;;;3.08;2.83;;;;;;;;;;5042953;28;20102;-62
2023/10/24 06:13:22;;;;;;;2.63;2.42;;;;;;;;;;5043537;28;20531;-62
2023/10/24 06:15:48;;;;;;;3.65;3.35;;;;;;;;;;5043906;28;20077;-62
2023/10/24 06:18:14;;;;;;;3.60;3.30;;;;;;;;;;5043986;28;20475;-62
2023/10/24 06:20:40;;;;;;;3.42;3.15;;;;;;;;;;5044700;28;20044;-62
2023/10/24 06:23:07;;;;;;;2.75;2.55;;;;;;;;;;5043663;28;20094;-62
2023/10/24 06:25:40;;;;;;;2.20;2.10;;;;;;;;;;5044721;28;20055;-62
2023/10/24 06:28:06;;;;;;;2.58;2.38;;;;;;;;;;5045068;28;20491;-62
2023/10/24 06:30:32;;;;;;;2.50;2.30;;;;;;;;;;5042365;28;20057;-62
2023/10/24 06:32:58;;;;;;;2.65;2.45;;;;;;;;;;5043634;28;20045;-61
2023/10/24 06:35:25;;;;;;;4.85;3.00;;;;;;;;;;5042517;28;20870;-61
2023/10/24 06:37:51;;;;;;;3.05;2.80;;;;;;;;;;5043050;28;20041;-61
2023/10/24 06:40:17;;;;;;;3.65;3.45;;;;;;;;;;5044685;28;20044;-61
2023/10/24 06:42:44;;;;;;;3.20;2.90;;;;;;;;;;5043901;28;20555;-61
2023/10/24 06:45:15;;;;;;;3.15;2.88;;;;;;;;;;5041999;28;20091;-61
2023/10/24 06:47:41;;;;;;;4.28;3.90;;;;;;;;;;5042878;28;20068;-61
2023/10/24 06:50:07;;;;;;;4.88;4.07;;;;;;;;;;5044718;28;20052;-61
2023/10/24 06:52:34;;;;;;;4.13;3.45;;;;;;;;;;5043644;28;20045;-61
2023/10/24 06:55:00;;;;;;;4.40;4.10;;;;;;;;;;5043501;28;20045;-61
2023/10/24 06:57:26;;;;;;;3.53;3.30;;;;;;;;;;5042718;28;20040;-61
2023/10/24 06:59:52;;;;;;;4.15;3.80;;;;;;;;;;5043431;28;20364;-61
2023/10/24 07:02:18;;;;;;;3.72;3.42;;;;;;;;;;5038620;28;20065;-61
2023/10/24 07:04:44;;;;;;;3.90;3.60;;;;;;;;;;5044942;28;20045;-61
2023/10/24 07:07:10;;;;;;;3.47;3.17;;;;;;;;;;5042720;28;20060;-61
2023/10/24 07:09:36;;;;;;;3.58;3.28;;;;;;;;;;5043432;28;20172;-61
2023/10/24 07:12:02;;;;;;;3.30;3.00;;;;;;;;;;5045222;28;20048;-61
2023/10/24 07:14:28;;;;;;;2.88;2.63;;;;;;;;;;5041453;28;20557;-61
2023/10/24 07:16:54;;;;;;;2.72;2.58;;;;;;;;;;5044546;28;20356;-61
2023/10/24 07:19:21;;;;;;;3.42;3.22;;;;;;;;;;5044871;28;20044;-61
2023/10/24 07:21:47;;;;;;;3.05;2.85;;;;;;;;;;5037837;28;20355;-61
2023/10/24 07:24:13;;;;;;;3.40;3.10;;;;;;;;;;5042652;28;20124;-61
2023/10/24 07:26:39;;;;;;;3.15;2.95;;;;;;;;;;5040995;28;20079;-61
2023/10/24 07:29:05;;;;;;;3.15;2.80;;;;;;;;;;5041737;28;20056;-61
2023/10/24 07:31:31;;;;;;;4.03;3.72;;;;;;;;;;5041976;28;20388;-61
2023/10/24 07:33:57;;;;;;;4.03;3.72;;;;;;;;;;5043061;28;20747;-61
2023/10/24 07:36:26;;;;;;;3.25;3.05;;;;;;;;;;5040504;28;20040;-61
2023/10/24 07:38:52;;;;;;;3.25;3.05;;;;;;;;;;5042308;28;20052;-61
2023/10/24 07:41:18;;;;;;;4.45;4.03;;;;;;;;;;5041144;28;20064;-61
2023/10/24 07:43:45;;;;;;;4.18;3.78;;;;;;;;;;5044553;28;20040;-61
2023/10/24 07:46:11;;;;;;;4.40;4.10;;;;;;;;;;5040395;28;20178;-61
2023/10/24 07:48:36;;;;;;;4.95;4.32;;;;;;;;;;5037904;28;20761;-61
2023/10/24 07:51:03;;;;;;;4.32;3.92;;;;;;;;;;5041166;28;20055;-61
2023/10/24 07:53:29;;;;;;;5.45;4.95;;;;;;;;;;5043016;28;20037;-61
2023/10/24 07:55:55;;;;;;;5.00;4.60;;;;;;;;;;5039807;28;20427;-61
2023/10/24 07:58:21;;;;;;;3.95;3.58;;;;;;;;;;5042937;28;20044;-63
2023/10/24 08:00:47;;;;;;;4.13;3.78;;;;;;;;;;5043348;28;20396;-62
2023/10/24 08:03:14;;;;;;;3.35;3.15;;;;;;;;;;5041563;28;20048;-68
2023/10/24 08:05:40;;;;;;;4.43;4.05;;;;;;;;;;5060565;28;20057;-65
2023/10/24 08:08:06;;;;;;;3.70;3.25;;;;;;;;;;5045529;28;20107;-61
2023/10/24 08:10:33;;;;;;;3.05;2.75;;;;;;;;;;5043706;28;20561;-60
2023/10/24 08:12:59;;;;;;;3.45;3.15;;;;;;;;;;5045742;28;20041;-60
2023/10/24 08:15:25;;;;;;;4.07;3.78;;;;;;;;;;5044254;28;20758;-60
2023/10/24 08:17:51;;;;;;;4.38;3.97;;;;;;;;;;5044210;28;20128;-60
2023/10/24 08:20:18;;;;;;;4.82;4.10;;;;;;;;;;5046654;28;20062;-60
2023/10/24 08:22:44;;;;;;;3.85;3.55;;;;;;;;;;5046453;28;20106;-61
2023/10/24 08:25:10;;;;;;;3.80;3.50;;;;;;;;;;5045293;28;20045;-60
2023/10/24 08:27:36;;;;;;;4.07;3.67;;;;;;;;;;5043160;28;20045;-60
2023/10/24 08:30:03;;;;;;;4.00;3.70;;;;;;;;;;5040161;28;20049;-60
2023/10/24 08:32:29;;;;;;;4.78;4.32;;;;;;;;;;5041683;28;20047;-60
2023/10/24 08:34:56;;;;;;;5.00;4.60;;;;;;;;;;5042558;28;20045;-60
2023/10/24 08:37:22;;;;;;;4.38;3.97;;;;;;;;;;5043610;28;20135;-60
2023/10/24 08:39:48;;;;;;;6.00;5.50;;;;;;;;;;5044182;28;20052;-60
2023/10/24 08:42:15;;;;;;;5.03;4.53;;;;;;;;;;5044371;28;20064;-60
2023/10/24 08:44:42;;;;;;;4.70;4.30;;;;;;;;;;5043713;28;20550;-59
2023/10/24 08:47:08;;;;;;;4.63;4.22;;;;;;;;;;5043161;28;20491;-60
2023/10/24 08:49:36;;;;;;;4.97;4.57;;;;;;;;;;5043053;28;20076;-60
2023/10/24 08:52:03;;;;;;;5.70;4.25;;;;;;;;;;5041520;28;20060;-60
2023/10/24 08:54:29;;;;;;;4.57;4.18;;;;;;;;;;5042658;28;20071;-60
2023/10/24 08:56:55;;;;;;;4.05;3.70;;;;;;;;;;5037057;28;20480;-60
2023/10/24 08:59:21;;;;;;;4.40;4.00;;;;;;;;;;5042411;28;20049;-60
2023/10/24 09:01:48;;;;;;;5.07;4.57;;;;;;;;;;5041258;28;20771;-60
2023/10/24 09:04:15;;;;;;;4.63;4.22;;;;;;;;;;5037251;28;20052;-60
2023/10/24 09:06:41;;;;;;;5.03;4.63;;;;;;;;;;5048111;28;20526;-60
2023/10/24 09:09:07;;;;;;;4.80;4.40;;;;;;;;;;5039602;28;20079;-61
2023/10/24 09:11:59;;;;;;;3.88;3.58;;;;;;;;;;5040110;28;20051;-60
2023/10/24 09:14:26;;;;;;;5.30;4.80;;;;;;;;;;5038793;28;20407;-60
2023/10/24 09:16:54;;;;;;;4.43;4.03;;;;;;;;;;5041181;28;20045;-60
2023/10/24 09:19:20;;;;;;;5.10;4.57;;;;;;;;;;5039403;28;20400;-60
2023/10/24 09:21:46;;;;;;;5.03;4.60;;;;;;;;;;5058595;28;20471;-60
2023/10/24 09:24:13;;;;;;;5.45;4.90;;;;;;;;;;5036978;28;20098;-60
2023/10/24 09:26:40;;;;;;;4.53;4.13;;;;;;;;;;5055615;28;20131;-60
2023/10/24 09:29:09;;;;;;;4.22;3.83;;;;;;;;;;5039537;28;20056;-60
2023/10/24 09:31:35;;;;;;;4.80;4.35;;;;;;;;;;5039990;28;20132;-60
2023/10/24 09:34:01;;;;;;;4.45;4.05;;;;;;;;;;5036535;28;20044;-60
2023/10/24 09:36:27;;;;;;;4.50;4.10;;;;;;;;;;5038914;28;20369;-60
2023/10/24 09:38:54;;;;;;;5.53;5.03;;;;;;;;;;5041731;28;20044;-60
2023/10/24 09:41:21;;;;;;;4.80;4.40;;;;;;;;;;5058492;28;20060;-60
2023/10/24 09:43:48;;;;;;;5.30;4.78;;;;;;;;;;5039695;28;20763;-60
2023/10/24 09:46:18;;;;;;;4.57;4.18;;;;;;;;;;5037015;28;20053;-61
2023/10/24 09:48:44;;;;;;;6.03;5.43;;;;;;;;;;5036653;28;20684;-61
2023/10/24 09:51:10;;;;;;;6.13;5.60;;;;;;;;;;5047350;28;20083;-61
2023/10/24 09:53:37;;;;;;;7.63;6.93;;;;;;;;;;5046117;28;20076;-61
2023/10/24 09:56:03;;;;;;;7.22;6.60;;;;;;;;;;5048633;28;20048;-61
2023/10/24 09:58:29;;;;;;;6.45;5.85;;;;;;;;;;5048771;28;20047;-61
2023/10/24 10:00:56;;;;;;;6.38;5.80;;;;;;;;;;5046414;28;20086;-60
2023/10/24 10:03:24;;;;;;;8.43;7.65;;;;;;;;;;5049155;28;20049;-60
2023/10/24 10:05:51;;;;;;;7.57;6.88;;;;;;;;;;5047149;28;20044;-60
2023/10/24 10:08:18;;;;;;;8.20;7.40;;;;;;;;;;5048258;28;20041;-60
2023/10/24 10:10:46;;;;;;;9.68;7.40;;;;;;;;;;5060176;28;20127;-60
2023/10/24 10:13:13;;;;;;;8.35;7.55;;;;;;;;;;5063795;28;20068;-61
2023/10/24 10:15:51;;;;;;;8.57;7.75;;;;;;;;;;5046717;28;20084;-61
2023/10/24 10:18:17;;;;;;;11.98;8.82;;;;;;;;;;5040451;28;20060;-61
2023/10/24 10:20:54;;;;;;;9.13;8.25;;;;;;;;;;5061067;28;20437;-61
2023/10/24 10:23:36;;;;;;;9.10;8.20;;;;;;;;;;5045241;28;20503;-62
2023/10/24 10:26:14;;;;;;;9.63;8.32;;;;;;;;;;5045644;28;20097;-61
2023/10/24 10:28:40;;;;;;;10.07;8.98;;;;;;;;;;5046957;28;20087;-61
2023/10/24 10:31:17;;;;;;;9.10;7.72;;;;;;;;;;5059550;28;20446;-61
2023/10/24 10:33:43;;;;;;;7.15;6.45;;;;;;;;;;5047310;28;20052;-62
2023/10/24 10:36:09;;;;;;;7.20;6.50;;;;;;;;;;5046462;28;20072;-61
2023/10/24 10:38:39;;;;;;;7.93;7.18;;;;;;;;;;5040820;28;20041;-61
2023/10/24 10:41:18;;;;;;;8.05;7.28;;;;;;;;;;5038650;28;20095;-61
2023/10/24 10:43:44;;;;;;;7.35;6.63;;;;;;;;;;5039887;28;20078;-61
2023/10/24 10:46:17;;;;;;;7.22;6.53;;;;;;;;;;5039500;28;20447;-61
2023/10/24 10:48:43;;;;;;;7.10;6.40;;;;;;;;;;5042452;28;20057;-61
2023/10/24 10:51:13;;;;;;;7.22;6.53;;;;;;;;;;5041745;28;20049;-61
2023/10/24 10:53:48;;;;;;;7.38;6.65;;;;;;;;;;5043269;28;20470;-60
2023/10/24 10:56:20;;;;;;;6.90;6.28;;;;;;;;;;5043491;28;20057;-61
2023/10/24 10:58:45;;;;;;;8.27;7.43;;;;;;;;;;5041164;28;20131;-61
2023/10/24 11:01:18;;;;;;;6.50;5.90;;;;;;;;;;5042257;28;20610;-61
2023/10/24 11:03:44;;;;;;;;;;;;;;;;;;5040650;28;20055;-60
2023/10/24 11:06:11;;;;;;;7.25;6.55;;;;;;;;;;5041369;28;19928;-61
2023/10/24 11:08:37;;;;;;;7.43;6.72;;;;;;;;;;5033445;28;20077;-61
2023/10/24 11:11:04;;;;;;;8.18;7.38;;;;;;;;;;5041264;28;20506;-61
2023/10/24 11:13:36;;;;;;;7.32;6.72;;;;;;;;;;5038125;28;20065;-61
2023/10/24 11:16:04;;;;;;;7.57;6.88;;;;;;;;;;5045518;28;20045;-61
2023/10/24 11:18:31;;;;;;;9.88;7.63;;;;;;;;;;5044572;28;20049;-61
2023/10/24 11:20:57;;;;;;;7.72;7.03;;;;;;;;;;5044720;28;20542;-61
2023/10/24 11:23:24;;;;;;;7.22;6.50;;;;;;;;;;5043827;28;20087;-60
2023/10/24 11:25:50;;;;;;;8.18;7.38;;;;;;;;;;5044280;28;20061;-61
2023/10/24 11:28:16;;;;;;;9.05;8.18;;;;;;;;;;5045083;28;20041;-60
2023/10/24 11:30:42;;;;;;;7.70;7.00;;;;;;;;;;5044368;28;20045;-60
2023/10/24 11:33:08;;;;;;;7.43;6.72;;;;;;;;;;5044972;28;20051;-60
2023/10/24 11:35:34;;;;;;;7.25;6.60;;;;;;;;;;5040740;28;20422;-60
2023/10/24 11:38:00;;;;;;;8.80;8.00;;;;;;;;;;5043404;28;20045;-60
2023/10/24 11:40:26;;;;;;;7.80;7.10;;;;;;;;;;5042456;28;20045;-61
2023/10/24 11:42:52;;;;;;;8.90;8.00;;;;;;;;;;5044393;28;20045;-60
2023/10/24 11:45:20;;;;;;;9.65;8.75;;;;;;;;;;5041612;28;20129;-61
2023/10/24 11:47:46;;;;;;;8.20;7.43;;;;;;;;;;5057569;28;20045;-60
2023/10/24 11:50:13;;;;;;;7.88;7.15;;;;;;;;;;5044754;28;20072;-60
2023/10/24 11:52:39;;;;;;;8.57;7.68;;;;;;;;;;5045769;28;20044;-61
2023/10/24 11:55:06;;;;;;;9.90;8.98;;;;;;;;;;5042066;28;20040;-60
2023/10/24 11:57:32;;;;;;;8.85;7.97;;;;;;;;;;5042768;28;20458;-61
2023/10/24 11:59:58;;;;;;;9.18;8.38;;;;;;;;;;5044407;28;20152;-61
2023/10/24 12:02:24;;;;;;;9.82;8.82;;;;;;;;;;5043783;28;20144;-61
2023/10/24 12:04:50;;;;;;;9.20;8.30;;;;;;;;;;5040574;28;20048;-61
2023/10/24 12:07:16;;;;;;;8.38;7.60;;;;;;;;;;5042793;28;20571;-60
2023/10/24 12:09:42;;;;;;;7.97;7.18;;;;;;;;;;5042799;28;20056;-61
2023/10/24 12:12:12;;;;;;;9.27;8.38;;;;;;;;;;5042615;28;20131;-60
2023/10/24 12:14:41;;;;;;;9.50;8.60;;;;;;;;;;5043937;28;20052;-61
2023/10/24 12:17:08;;;;;;;7.85;7.15;;;;;;;;;;5038331;28;20049;-61
2023/10/24 12:19:34;;;;;;;8.27;7.47;;;;;;;;;;5043980;28;20057;-60
2023/10/24 12:22:00;;;;;;;6.88;6.30;;;;;;;;;;5044286;28;20087;-60
2023/10/24 12:24:26;;;;;;;8.25;7.47;;;;;;;;;;5045016;28;20077;-60
2023/10/24 12:26:52;;;;;;;7.05;6.45;;;;;;;;;;5044892;28;20578;-60
2023/10/24 12:29:18;;;;;;;7.35;6.65;;;;;;;;;;5044124;28;20103;-60
2023/10/24 12:31:44;;;;;;;7.47;6.72;;;;;;;;;;5045467;28;20053;-60
2023/10/24 12:34:12;;;;;;;8.82;7.93;;;;;;;;;;5044100;28;20037;-60
2023/10/24 12:36:38;;;;;;;6.43;5.82;;;;;;;;;;5057646;28;20479;-61
2023/10/24 12:39:04;;;;;;;6.47;5.97;;;;;;;;;;5057592;28;20048;-60
2023/10/24 12:41:30;;;;;;;6.35;5.85;;;;;;;;;;5039109;28;20582;-60
2023/10/24 12:43:56;;;;;;;7.32;6.63;;;;;;;;;;5033096;28;20057;-60
2023/10/24 12:46:22;;;;;;;6.43;5.93;;;;;;;;;;5043419;28;20086;-60
2023/10/24 12:48:48;;;;;;;6.20;5.63;;;;;;;;;;5037656;28;20057;-60
2023/10/24 12:51:14;;;;;;;7.25;6.65;;;;;;;;;;5040025;28;20423;-60
2023/10/24 12:53:40;;;;;;;8.20;7.47;;;;;;;;;;5045722;28;20084;-60
2023/10/24 12:56:07;;;;;;;7.53;6.88;;;;;;;;;;5045258;28;20082;-60
2023/10/24 12:58:33;;;;;;;6.90;6.20;;;;;;;;;;5031829;28;20380;-60
2023/10/24 13:00:59;;;;;;;5.38;4.93;;;;;;;;;;5037205;28;20053;-60
2023/10/24 13:03:25;;;;;;;5.63;5.10;;;;;;;;;;5040845;28;20055;-61
2023/10/24 13:05:51;;;;;;;6.10;5.60;;;;;;;;;;5041809;28;20144;-61
2023/10/24 13:08:18;;;;;;;6.13;5.63;;;;;;;;;;5035535;28;20121;-61
2023/10/24 13:10:44;;;;;;;4.95;4.55;;;;;;;;;;5035893;28;20059;-62
2023/10/24 13:13:10;;;;;;;4.80;4.40;;;;;;;;;;5034147;28;20057;-62
2023/10/24 13:15:36;;;;;;;4.68;4.30;;;;;;;;;;5038333;28;20483;-62
2023/10/24 13:18:02;;;;;;;4.65;4.25;;;;;;;;;;5039739;28;20081;-62
2023/10/24 13:20:28;;;;;;;4.85;4.47;;;;;;;;;;5034728;28;20444;-62
2023/10/24 13:22:54;;;;;;;6.20;5.70;;;;;;;;;;5030651;28;20080;-62
2023/10/24 13:25:20;;;;;;;5.47;4.60;;;;;;;;;;5033803;28;20080;-62
2023/10/24 13:27:46;;;;;;;5.03;4.63;;;;;;;;;;5038469;28;20076;-62
2023/10/24 13:30:13;;;;;;;5.18;4.78;;;;;;;;;;5041928;28;20110;-61
2023/10/24 13:32:39;;;;;;;4.38;4.03;;;;;;;;;;5041685;28;20045;-61
2023/10/24 13:35:05;;;;;;;4.53;4.22;;;;;;;;;;5040891;28;20404;-61
2023/10/24 13:37:31;;;;;;;5.68;5.28;;;;;;;;;;5057713;28;20227;-61
2023/10/24 13:39:57;;;;;;;5.32;4.93;;;;;;;;;;5058325;28;20552;-61
2023/10/24 13:42:23;;;;;;;4.45;4.13;;;;;;;;;;5041585;28;20044;-61
2023/10/24 13:44:49;;;;;;;5.75;5.25;;;;;;;;;;5039228;28;20504;-61
2023/10/24 13:47:15;;;;;;;4.47;4.13;;;;;;;;;;5040191;28;20507;-61
2023/10/24 13:49:41;;;;;;;4.80;4.35;;;;;;;;;;5039057;28;20135;-61
2023/10/24 13:52:08;;;;;;;5.13;4.72;;;;;;;;;;5059207;28;20621;-61
2023/10/24 13:54:34;;;;;;;4.93;4.53;;;;;;;;;;5039476;28;20064;-61
2023/10/24 13:57:00;;;;;;;4.47;4.18;;;;;;;;;;5041133;28;20040;-61
2023/10/24 13:59:26;;;;;;;5.00;4.60;;;;;;;;;;5039791;28;20053;-61
2023/10/24 14:01:52;;;;;;;5.25;4.75;;;;;;;;;;5040519;28;20084;-60
2023/10/24 14:04:18;;;;;;;5.85;5.35;;;;;;;;;;5042601;28;20140;-61
2023/10/24 14:06:44;;;;;;;5.30;4.90;;;;;;;;;;5043701;28;20148;-61
2023/10/24 14:09:13;;;;;;;4.53;4.22;;;;;;;;;;5042272;28;20132;-61
2023/10/24 14:11:39;;;;;;;4.70;4.30;;;;;;;;;;5044338;28;20052;-61
2023/10/24 14:14:05;;;;;;;4.38;3.97;;;;;;;;;;5042490;28;20052;-62
2023/10/24 14:16:32;;;;;;;3.80;3.50;;;;;;;;;;5042573;28;20049;-61
2023/10/24 14:18:59;;;;;;;3.85;3.55;;;;;;;;;;5042981;28;20041;-62
2023/10/24 14:21:25;;;;;;;3.00;2.80;;;;;;;;;;5038986;28;20055;-62
2023/10/24 14:23:51;;;;;;;3.38;3.10;;;;;;;;;;5037271;28;20427;-61
2023/10/24 14:26:18;;;;;;;3.17;2.97;;;;;;;;;;5041520;28;20491;-61
2023/10/24 14:28:44;;;;;;;4.07;3.78;;;;;;;;;;5033835;28;20052;-61
2023/10/24 14:31:10;;;;;;;3.30;3.05;;;;;;;;;;5038773;28;20053;-61
2023/10/24 14:33:37;;;;;;;3.38;3.17;;;;;;;;;;5039894;28;20535;-61
2023/10/24 14:36:03;;;;;;;3.50;3.25;;;;;;;;;;5058002;28;20061;-62
2023/10/24 14:38:29;;;;;;;3.85;3.55;;;;;;;;;;5042933;28;20041;-61
2023/10/24 14:40:57;;;;;;;3.33;3.10;;;;;;;;;;5038152;28;20056;-62